createdAt,value
2022-12-17T00:00:44.030Z,17.53
2022-12-17T00:03:30.622Z,20.00
2022-12-17T00:06:15.983Z,20.90
2022-12-17T00:09:03.269Z,21.00
2022-12-17T00:11:49.287Z,17.40
2022-12-17T00:14:34.765Z,14.53
2022-12-17T00:17:20.450Z,20.57
2022-12-17T00:20:06.073Z,19.20
2022-12-17T00:22:51.748Z,23.57
2022-12-17T00:25:40.887Z,16.37
2022-12-17T00:28:28.688Z,22.60
2022-12-17T00:31:14.389Z,19.90
2022-12-17T00:34:00.498Z,16.97
2022-12-17T00:36:46.851Z,16.97
2022-12-17T00:39:32.663Z,18.43
2022-12-17T00:42:19.590Z,15.77
2022-12-17T00:45:05.272Z,15.77
2022-12-17T00:47:50.851Z,15.93
2022-12-17T00:50:36.349Z,17.43
2022-12-17T00:53:22.061Z,18.97
2022-12-17T00:56:07.421Z,14.60
2022-12-17T00:58:54.571Z,16.27
2022-12-17T01:01:40.186Z,17.83
2022-12-17T01:04:26.852Z,16.97
2022-12-17T01:07:12.541Z,20.33
2022-12-17T01:09:58.001Z,18.03
2022-12-17T01:12:43.368Z,16.87
2022-12-17T01:15:30.545Z,17.30
2022-12-17T01:18:16.372Z,17.57
2022-12-17T01:21:02.273Z,17.23
2022-12-17T01:23:47.882Z,16.40
2022-12-17T01:26:33.264Z,17.83
2022-12-17T01:29:30.357Z,16.13
2022-12-17T01:32:17.716Z,15.57
2022-12-17T01:35:03.200Z,15.93
2022-12-17T01:37:48.891Z,15.13
2022-12-17T01:40:34.978Z,15.73
2022-12-17T01:43:21.026Z,15.63
2022-12-17T01:46:08.243Z,16.20
2022-12-17T01:49:00.443Z,14.90
2022-12-17T01:51:48.125Z,16.37
2022-12-17T01:54:43.217Z,17.83
2022-12-17T01:57:28.788Z,14.30
2022-12-17T02:00:18.973Z,15.43
2022-12-17T02:03:04.452Z,13.70
2022-12-17T02:06:01.371Z,15.53
2022-12-17T02:08:55.432Z,15.80
2022-12-17T02:11:49.122Z,14.73
2022-12-17T02:14:41.695Z,17.00
2022-12-17T02:17:33.946Z,15.23
2022-12-17T02:20:38.175Z,18.37
2022-12-17T02:23:35.510Z,17.23
2022-12-17T02:26:25.117Z,15.83
2022-12-17T02:29:12.098Z,16.80
2022-12-17T02:32:00.783Z,15.23
2022-12-17T02:34:49.770Z,14.13
2022-12-17T02:37:36.036Z,14.67
2022-12-17T02:40:22.276Z,14.90
2022-12-17T02:43:13.609Z,15.50
2022-12-17T02:46:00.915Z,16.37
2022-12-17T02:48:46.902Z,15.03
2022-12-17T02:51:32.677Z,15.10
2022-12-17T02:54:22.313Z,15.73
2022-12-17T02:57:08.494Z,16.33
2022-12-17T02:59:54.024Z,13.40
2022-12-17T03:02:41.309Z,16.33
2022-12-17T03:05:45.802Z,16.53
2022-12-17T03:08:32.155Z,17.60
2022-12-17T03:11:18.235Z,13.90
2022-12-17T03:14:03.960Z,11.60
2022-12-17T03:16:49.740Z,14.40
2022-12-17T03:19:36.861Z,15.67
2022-12-17T03:22:22.538Z,13.83
2022-12-17T03:25:07.955Z,12.53
2022-12-17T03:27:53.367Z,14.13
2022-12-17T03:30:47.155Z,12.00
2022-12-17T03:33:35.472Z,14.90
2022-12-17T03:36:23.050Z,14.17
2022-12-17T03:39:08.319Z,17.93
2022-12-17T03:41:54.323Z,12.37
2022-12-17T03:44:51.191Z,14.47
2022-12-17T03:47:36.860Z,14.60
2022-12-17T03:50:23.274Z,14.47
2022-12-17T03:53:11.187Z,13.03
2022-12-17T03:55:56.779Z,14.50
2022-12-17T03:58:42.585Z,13.37
2022-12-17T04:01:28.183Z,11.93
2022-12-17T04:04:14.134Z,14.30
2022-12-17T04:06:59.830Z,12.77
2022-12-17T04:09:46.945Z,12.90
2022-12-17T04:12:32.314Z,15.97
2022-12-17T04:15:17.867Z,13.83
2022-12-17T04:18:03.601Z,15.27
2022-12-17T04:20:48.996Z,15.20
2022-12-17T04:23:34.819Z,17.50
2022-12-17T04:26:21.892Z,13.50
2022-12-17T04:29:07.197Z,21.10
2022-12-17T04:31:53.188Z,15.50
2022-12-17T04:34:38.816Z,14.73
2022-12-17T04:37:25.049Z,17.80
2022-12-17T04:40:10.579Z,14.47
2022-12-17T04:42:57.654Z,14.67
2022-12-17T04:45:43.046Z,13.20
2022-12-17T04:48:28.403Z,16.90
2022-12-17T04:51:14.006Z,14.37
2022-12-17T04:53:59.493Z,14.50
2022-12-17T04:56:45.099Z,18.03
2022-12-17T04:59:32.347Z,18.90
2022-12-17T05:02:17.751Z,17.30
2022-12-17T05:05:03.214Z,19.53
2022-12-17T05:07:48.536Z,15.83
2022-12-17T05:10:34.608Z,17.97
2022-12-17T05:13:20.765Z,15.33
2022-12-17T05:16:07.781Z,20.23
2022-12-17T05:18:53.524Z,17.17
2022-12-17T05:21:39.250Z,19.80
2022-12-17T05:24:25.315Z,15.33
2022-12-17T05:27:11.080Z,18.03
2022-12-17T05:29:53.071Z,22.07
2022-12-17T05:32:40.285Z,22.70
2022-12-17T05:35:26.709Z,22.10
2022-12-17T05:38:12.240Z,19.10
2022-12-17T05:40:58.280Z,18.80
2022-12-17T05:43:43.859Z,18.70
2022-12-17T05:46:29.237Z,24.67
2022-12-17T05:49:12.801Z,23.10
2022-12-17T05:52:03.707Z,22.70
2022-12-17T05:54:49.255Z,25.33
2022-12-17T05:57:34.704Z,22.77
2022-12-17T06:00:20.276Z,23.03
2022-12-17T06:03:05.704Z,25.97
2022-12-17T06:05:52.543Z,24.73
2022-12-17T06:08:37.939Z,29.63
2022-12-17T06:11:23.745Z,26.27
2022-12-17T06:14:09.363Z,25.13
2022-12-17T06:16:55.491Z,25.07
2022-12-17T06:19:41.438Z,25.63
2022-12-17T06:22:29.061Z,25.93
2022-12-17T06:25:14.731Z,30.37
2022-12-17T06:28:00.361Z,28.60
2022-12-17T06:30:45.910Z,25.83
2022-12-17T06:33:31.879Z,27.50
2022-12-17T06:36:22.451Z,25.03
2022-12-17T06:39:09.751Z,22.93
2022-12-17T06:42:02.182Z,22.57
2022-12-17T06:44:50.041Z,26.87
2022-12-17T06:47:35.678Z,22.67
2022-12-17T06:50:21.736Z,31.73
2022-12-17T06:53:15.186Z,25.37
2022-12-17T06:56:01.989Z,28.87
2022-12-17T06:58:44.378Z,26.50
2022-12-17T07:01:30.046Z,25.33
2022-12-17T07:04:15.778Z,25.63
2022-12-17T07:07:01.415Z,28.70
2022-12-17T07:09:47.460Z,28.57
2022-12-17T07:12:34.282Z,28.93
2022-12-17T07:15:20.274Z,29.70
2022-12-17T07:18:13.837Z,25.47
2022-12-17T07:20:59.656Z,24.77
2022-12-17T07:23:45.486Z,26.27
2022-12-17T07:26:31.308Z,25.60
2022-12-17T07:29:18.268Z,26.50
2022-12-17T07:32:04.184Z,30.67
2022-12-17T07:34:50.109Z,32.77
2022-12-17T07:37:35.410Z,28.20
2022-12-17T07:40:21.331Z,31.00
2022-12-17T07:43:06.832Z,31.07
2022-12-17T07:45:59.603Z,30.13
2022-12-17T07:48:44.888Z,25.37
2022-12-17T07:51:30.401Z,25.47
2022-12-17T07:54:16.007Z,27.27
2022-12-17T07:57:01.522Z,29.97
2022-12-17T07:59:47.407Z,28.43
2022-12-17T08:02:34.539Z,28.40
2022-12-17T08:05:20.249Z,27.33
2022-12-17T08:08:05.911Z,28.37
2022-12-17T08:10:51.919Z,26.87
2022-12-17T08:13:38.884Z,25.13
2022-12-17T08:16:25.615Z,30.33
2022-12-17T08:19:09.359Z,28.27
2022-12-17T08:21:55.386Z,25.90
2022-12-17T08:24:41.447Z,29.07
2022-12-17T08:27:27.018Z,23.93
2022-12-17T08:30:12.501Z,26.20
2022-12-17T08:32:58.328Z,28.30
2022-12-17T08:35:45.282Z,23.20
2022-12-17T08:38:31.105Z,26.60
2022-12-17T08:41:18.907Z,24.17
2022-12-17T08:44:04.274Z,31.00
2022-12-17T08:46:50.151Z,29.43
2022-12-17T08:49:35.473Z,21.73
2022-12-17T08:52:22.663Z,27.07
2022-12-17T08:55:08.100Z,24.37
2022-12-17T08:57:53.868Z,33.90
2022-12-17T09:00:39.468Z,28.97
2022-12-17T09:03:25.215Z,29.73
2022-12-17T09:06:11.514Z,25.00
2022-12-17T09:08:58.929Z,27.37
2022-12-17T09:11:44.336Z,23.80
2022-12-17T09:14:41.572Z,24.20
2022-12-17T09:17:27.235Z,26.67
2022-12-17T09:20:12.642Z,24.53
2022-12-17T09:22:58.729Z,24.27
2022-12-17T09:25:46.649Z,28.97
2022-12-17T09:28:32.187Z,31.73
2022-12-17T09:31:18.108Z,30.27
2022-12-17T09:34:04.210Z,29.03
2022-12-17T09:36:51.288Z,23.73
2022-12-17T09:39:37.038Z,25.57
2022-12-17T09:42:33.277Z,24.83
2022-12-17T09:45:25.539Z,27.73
2022-12-17T09:48:32.568Z,21.43
2022-12-17T09:51:19.205Z,22.53
2022-12-17T09:54:08.432Z,27.40
2022-12-17T09:56:55.960Z,23.60
2022-12-17T09:59:48.127Z,24.97
2022-12-17T10:02:37.628Z,39.90
2022-12-17T10:05:26.997Z,20.73
2022-12-17T10:08:13.608Z,25.93
2022-12-17T10:11:03.972Z,24.77
2022-12-17T10:13:49.787Z,25.23
2022-12-17T10:16:46.427Z,25.87
2022-12-17T10:19:41.467Z,18.43
2022-12-17T10:22:29.055Z,35.00
2022-12-17T10:25:21.559Z,28.63
2022-12-17T10:28:18.533Z,26.80
2022-12-17T10:31:06.517Z,23.80
2022-12-17T10:33:59.209Z,32.27
2022-12-17T10:36:46.902Z,25.17
2022-12-17T10:39:38.934Z,22.33
2022-12-17T10:42:39.160Z,28.93
2022-12-17T10:45:40.573Z,22.50
2022-12-17T10:48:36.557Z,30.53
2022-12-17T10:51:25.556Z,24.37
2022-12-17T10:54:12.166Z,22.43
2022-12-17T10:56:58.036Z,23.57
2022-12-17T10:59:52.030Z,59.90
2022-12-17T11:02:44.499Z,30.10
2022-12-17T11:05:33.365Z,27.60
2022-12-17T11:08:22.119Z,30.07
2022-12-17T11:11:08.241Z,27.30
2022-12-17T11:13:59.941Z,25.57
2022-12-17T11:16:49.450Z,21.03
2022-12-17T11:19:49.708Z,21.73
2022-12-17T11:22:48.492Z,25.20
2022-12-17T11:25:57.625Z,24.10
2022-12-17T11:28:45.903Z,23.60
2022-12-17T11:31:51.707Z,22.00
2022-12-17T11:34:48.887Z,22.77
2022-12-17T11:37:38.400Z,23.27
2022-12-17T11:40:39.601Z,23.97
2022-12-17T11:43:34.533Z,23.67
2022-12-17T11:46:35.389Z,26.93
2022-12-17T11:49:33.107Z,23.80
2022-12-17T11:52:25.721Z,25.53
2022-12-17T11:55:19.388Z,25.37
2022-12-17T11:58:14.686Z,25.07
2022-12-17T12:01:22.939Z,21.50
2022-12-17T12:04:19.156Z,23.43
2022-12-17T12:07:16.328Z,23.70
2022-12-17T12:10:07.764Z,26.30
2022-12-17T12:13:06.628Z,25.47
2022-12-17T12:16:03.397Z,30.70
2022-12-17T12:19:02.224Z,24.50
2022-12-17T12:21:57.309Z,26.27
2022-12-17T12:25:00.211Z,21.73
2022-12-17T12:27:54.638Z,23.40
2022-12-17T12:30:53.537Z,22.43
2022-12-17T12:33:49.202Z,26.30
2022-12-17T12:36:39.652Z,23.30
2022-12-17T12:39:30.930Z,26.63
2022-12-17T12:42:21.753Z,26.53
2022-12-17T12:45:18.762Z,24.97
2022-12-17T12:48:11.983Z,26.10
2022-12-17T12:51:07.238Z,27.43
2022-12-17T12:53:55.285Z,24.77
2022-12-17T12:56:46.305Z,25.73
2022-12-17T12:59:43.585Z,24.07
2022-12-17T13:02:48.879Z,26.43
2022-12-17T13:05:34.965Z,24.87
2022-12-17T13:08:05.375Z,29.00
2022-12-17T13:10:36.181Z,24.37
2022-12-17T13:13:13.819Z,24.10
2022-12-17T13:15:45.304Z,27.17
2022-12-17T13:18:25.059Z,28.77
2022-12-17T13:21:01.768Z,31.57
2022-12-17T13:23:40.281Z,24.30
2022-12-17T13:26:25.391Z,24.17
2022-12-17T13:29:03.091Z,22.83
2022-12-17T13:31:42.413Z,25.00
2022-12-17T13:34:18.239Z,24.30
2022-12-17T13:36:55.901Z,25.23
2022-12-17T13:39:35.234Z,21.70
2022-12-17T13:42:06.192Z,24.10
2022-12-17T13:44:41.391Z,23.93
2022-12-17T13:47:22.079Z,24.77
2022-12-17T13:50:24.474Z,26.63
2022-12-17T13:52:41.784Z,29.13
2022-12-17T13:55:18.676Z,23.70
2022-12-17T13:57:50.365Z,25.40
2022-12-17T14:00:24.495Z,48.57
2022-12-17T14:02:53.730Z,33.73
2022-12-17T14:05:28.193Z,24.30
2022-12-17T14:07:59.883Z,25.30
2022-12-17T14:10:29.437Z,26.83
2022-12-17T14:13:05.858Z,28.00
2022-12-17T14:15:34.994Z,26.03
2022-12-17T14:18:04.498Z,26.67
2022-12-17T14:20:35.558Z,24.67
2022-12-17T14:23:07.076Z,28.30
2022-12-17T14:25:38.163Z,22.33
2022-12-17T14:28:22.094Z,22.03
2022-12-17T14:31:24.956Z,24.13
2022-12-17T14:33:40.684Z,25.63
2022-12-17T14:36:16.313Z,26.80
2022-12-17T14:38:54.611Z,26.03
2022-12-17T14:41:49.457Z,22.30
2022-12-17T14:44:22.181Z,22.93
2022-12-17T14:46:51.478Z,27.70
2022-12-17T14:49:21.941Z,27.33
2022-12-17T14:51:51.181Z,24.37
2022-12-17T14:54:24.482Z,25.40
2022-12-17T14:56:54.592Z,26.10
2022-12-17T14:59:40.992Z,23.67
2022-12-17T15:02:20.949Z,27.03
2022-12-17T15:04:49.582Z,24.67
2022-12-17T15:07:25.479Z,26.67
2022-12-17T15:09:55.364Z,26.60
2022-12-17T15:12:24.888Z,30.70
2022-12-17T15:14:54.585Z,28.03
2022-12-17T15:17:23.789Z,30.40
2022-12-17T15:19:56.248Z,31.90
2022-12-17T15:22:25.282Z,35.87
2022-12-17T15:24:53.740Z,31.90
2022-12-17T15:27:22.275Z,35.23
2022-12-17T15:29:50.811Z,36.27
2022-12-17T15:32:21.976Z,35.63
2022-12-17T15:34:51.006Z,35.10
2022-12-17T15:37:25.358Z,33.40
2022-12-17T15:39:54.031Z,34.13
2022-12-17T15:42:39.772Z,37.13
2022-12-17T15:45:09.824Z,28.37
2022-12-17T15:47:41.129Z,35.50
2022-12-17T15:50:10.693Z,43.90
2022-12-17T15:52:39.430Z,42.13
2022-12-17T15:55:08.778Z,44.27
2022-12-17T15:57:37.056Z,39.00
2022-12-17T16:00:06.356Z,40.40
2022-12-17T16:02:34.950Z,47.87
2022-12-17T16:05:05.630Z,45.50
2022-12-17T16:07:37.143Z,47.30
2022-12-17T16:10:06.242Z,37.23
2022-12-17T16:12:34.906Z,37.73
2022-12-17T16:15:03.468Z,42.93
2022-12-17T16:17:31.912Z,36.10
2022-12-17T16:20:00.699Z,33.37
2022-12-17T16:22:32.444Z,33.23
2022-12-17T16:25:00.738Z,33.47
2022-12-17T16:27:29.135Z,30.00
2022-12-17T16:30:00.798Z,27.53
2022-12-17T16:32:34.551Z,32.13
2022-12-17T16:35:05.379Z,26.97
2022-12-17T16:37:35.542Z,27.43
2022-12-17T16:40:04.421Z,25.83
2022-12-17T16:42:33.625Z,30.93
2022-12-17T16:45:02.059Z,33.60
2022-12-17T16:47:33.550Z,30.50
2022-12-17T16:50:18.757Z,28.53
2022-12-17T16:52:50.008Z,26.30
2022-12-17T16:55:18.575Z,32.07
2022-12-17T16:57:49.621Z,28.17
2022-12-17T17:00:18.197Z,27.90
2022-12-17T17:02:53.279Z,25.70
2022-12-17T17:05:22.055Z,27.97
2022-12-17T17:07:52.326Z,25.30
2022-12-17T17:10:20.652Z,34.83
2022-12-17T17:12:49.007Z,25.70
2022-12-17T17:15:17.654Z,31.03
2022-12-17T17:17:54.760Z,29.07
2022-12-17T17:20:24.678Z,27.93
2022-12-17T17:22:57.568Z,27.23
2022-12-17T17:25:38.521Z,27.57
2022-12-17T17:28:14.736Z,29.47
2022-12-17T17:30:43.111Z,30.90
2022-12-17T17:33:12.004Z,31.77
2022-12-17T17:35:41.692Z,28.00
2022-12-17T17:38:11.874Z,32.73
2022-12-17T17:40:40.454Z,31.93
2022-12-17T17:43:10.695Z,27.77
2022-12-17T17:45:40.464Z,35.57
2022-12-17T17:48:08.702Z,30.20
2022-12-17T17:50:37.041Z,33.27
2022-12-17T17:53:05.469Z,28.27
2022-12-17T17:55:37.613Z,28.77
2022-12-17T17:58:06.496Z,32.90
2022-12-17T18:00:34.802Z,29.63
2022-12-17T18:03:03.366Z,31.93
2022-12-17T18:05:33.122Z,37.07
2022-12-17T18:08:04.110Z,33.83
2022-12-17T18:10:32.736Z,33.70
2022-12-17T18:13:20.131Z,31.83
2022-12-17T18:15:48.542Z,35.27
2022-12-17T18:18:16.903Z,35.17
2022-12-17T18:20:45.214Z,36.73
2022-12-17T18:23:13.566Z,33.50
2022-12-17T18:25:41.955Z,35.83
2022-12-17T18:28:11.954Z,32.53
2022-12-17T18:30:40.522Z,37.53
2022-12-17T18:33:08.750Z,37.40
2022-12-17T18:35:37.354Z,36.17
2022-12-17T18:38:05.670Z,34.97
2022-12-17T18:40:36.073Z,36.17
2022-12-17T18:43:22.132Z,29.67
2022-12-17T18:45:52.917Z,30.20
2022-12-17T18:48:21.978Z,36.93
2022-12-17T18:50:50.397Z,38.27
2022-12-17T18:53:18.610Z,40.97
2022-12-17T18:55:47.106Z,33.60
2022-12-17T18:58:15.590Z,32.77
2022-12-17T19:00:43.916Z,31.27
2022-12-17T19:03:13.771Z,33.63
2022-12-17T19:05:46.491Z,50.43
2022-12-17T19:08:16.379Z,38.67
2022-12-17T19:10:44.810Z,37.67
2022-12-17T19:13:13.467Z,37.30
2022-12-17T19:15:41.920Z,31.33
2022-12-17T19:18:10.256Z,31.17
2022-12-17T19:20:39.987Z,31.83
2022-12-17T19:23:08.432Z,28.93
2022-12-17T19:25:36.773Z,29.63
2022-12-17T19:28:05.460Z,29.87
2022-12-17T19:30:34.368Z,33.00
2022-12-17T19:33:02.702Z,33.53
2022-12-17T19:35:30.983Z,35.50
2022-12-17T19:38:00.831Z,31.67
2022-12-17T19:40:29.267Z,32.03
2022-12-17T19:42:57.965Z,33.43
2022-12-17T19:45:26.599Z,32.20
2022-12-17T19:47:55.208Z,34.90
2022-12-17T19:50:23.442Z,39.50
2022-12-17T19:52:51.829Z,35.27
2022-12-17T19:55:22.165Z,35.33
2022-12-17T19:57:50.677Z,28.40
2022-12-17T20:00:19.431Z,36.00
2022-12-17T20:02:47.825Z,41.27
2022-12-17T20:05:16.264Z,41.50
2022-12-17T20:07:44.775Z,32.40
2022-12-17T20:10:13.044Z,35.30
2022-12-17T20:12:42.985Z,34.57
2022-12-17T20:15:11.884Z,39.53
2022-12-17T20:17:40.197Z,34.83
2022-12-17T20:20:09.763Z,32.43
2022-12-17T20:22:38.101Z,33.97
2022-12-17T20:25:09.430Z,38.30
2022-12-17T20:27:37.777Z,35.90
2022-12-17T20:30:09.356Z,53.40
2022-12-17T20:32:37.945Z,30.90
2022-12-17T20:35:07.156Z,36.33
2022-12-17T20:37:35.840Z,32.37
2022-12-17T20:40:04.673Z,35.50
2022-12-17T20:42:33.149Z,35.23
2022-12-17T20:45:02.138Z,36.27
2022-12-17T20:47:32.003Z,37.70
2022-12-17T20:50:00.255Z,37.50
2022-12-17T20:52:28.547Z,39.07
2022-12-17T20:54:56.858Z,37.17
2022-12-17T20:57:25.146Z,41.83
2022-12-17T20:59:53.482Z,39.00
2022-12-17T21:02:21.837Z,34.13
2022-12-17T21:04:51.796Z,42.13
2022-12-17T21:07:20.573Z,41.03
2022-12-17T21:09:48.953Z,42.53
2022-12-17T21:12:17.191Z,41.10
2022-12-17T21:14:46.019Z,34.57
2022-12-17T21:17:17.513Z,46.10
2022-12-17T21:19:45.951Z,45.10
2022-12-17T21:22:16.133Z,44.72
2022-12-17T21:24:44.544Z,43.40
2022-12-17T21:27:15.147Z,40.10
2022-12-17T21:29:43.494Z,39.07
2022-12-17T21:32:11.975Z,41.00
2022-12-17T21:34:40.820Z,35.10
2022-12-17T21:37:11.150Z,34.20
2022-12-17T21:39:41.116Z,47.23
2022-12-17T21:42:26.642Z,45.97
2022-12-17T21:44:55.073Z,42.77
2022-12-17T21:47:24.570Z,39.50
2022-12-17T21:49:52.930Z,40.45
2022-12-17T21:52:21.335Z,42.87
2022-12-17T21:54:51.556Z,40.88
2022-12-17T21:57:19.747Z,48.33
2022-12-17T21:59:48.489Z,51.50
2022-12-17T22:02:17.345Z,44.40
2022-12-17T22:04:45.889Z,40.37
2022-12-17T22:07:23.454Z,33.60
2022-12-17T22:10:23.080Z,43.67
2022-12-17T22:13:08.333Z,39.93
2022-12-17T22:15:39.508Z,40.15
2022-12-17T22:18:16.840Z,45.03
2022-12-17T22:20:44.983Z,43.83
2022-12-17T22:23:13.633Z,40.30
2022-12-17T22:25:43.945Z,35.73
2022-12-17T22:28:12.451Z,36.10
2022-12-17T22:30:58.244Z,37.63
2022-12-17T22:33:44.297Z,31.80
2022-12-17T22:39:19.739Z,32.67
2022-12-17T22:42:50.389Z,30.23
2022-12-17T22:44:49.641Z,32.95
2022-12-17T22:45:09.299Z,30.90
2022-12-17T22:47:39.266Z,39.47
2022-12-17T22:50:08.156Z,35.97
2022-12-17T22:52:36.859Z,42.88
2022-12-17T22:55:06.465Z,30.43
2022-12-17T22:57:38.481Z,42.38
2022-12-17T23:00:18.954Z,36.42
2022-12-17T23:02:47.441Z,34.35
2022-12-17T23:05:15.829Z,32.03
2022-12-17T23:07:44.225Z,30.87
2022-12-17T23:10:12.596Z,32.28
2022-12-17T23:12:55.086Z,28.40
2022-12-17T23:15:27.639Z,31.88
2022-12-17T23:18:00.928Z,30.45
2022-12-17T23:20:31.116Z,33.17
2022-12-17T23:23:03.242Z,37.72
2022-12-17T23:25:32.143Z,31.77
2022-12-17T23:28:01.830Z,34.05
2022-12-17T23:30:30.046Z,34.78
2022-12-17T23:32:58.449Z,36.67
2022-12-17T23:35:26.656Z,32.65
2022-12-17T23:37:55.117Z,33.25
2022-12-17T23:40:23.456Z,37.10
2022-12-17T23:42:51.757Z,35.50
2022-12-17T23:45:23.268Z,28.20
2022-12-17T23:47:51.600Z,28.88
2022-12-17T23:50:20.625Z,31.23
2022-12-17T23:52:48.823Z,33.17
2022-12-17T23:55:17.271Z,34.15
2022-12-17T23:57:45.514Z,34.80
